sensor_id;sensor_type;location;lat;lon;timestamp;temperature;humidity
37240;DHT22;23130;48.760;9.178;2023-03-24T00:01:51;12.80;99.90
37240;DHT22;23130;48.760;9.178;2023-03-24T00:04:17;12.70;99.90
37240;DHT22;23130;48.760;9.178;2023-03-24T00:06:42;12.70;99.90
37240;DHT22;23130;48.760;9.178;2023-03-24T00:09:09;12.70;99.90
37240;DHT22;23130;48.760;9.178;2023-03-24T00:11:35;12.60;99.90
37240;DHT22;23130;48.760;9.178;2023-03-24T00:14:01;12.60;99.90
37240;DHT22;23130;48.760;9.178;2023-03-24T00:16:28;12.60;99.90
37240;DHT22;23130;48.760;9.178;2023-03-24T00:18:54;12.60;99.90
37240;DHT22;23130;48.760;9.178;2023-03-24T00:21:22;12.60;99.90
37240;DHT22;23130;48.760;9.178;2023-03-24T00:23:52;12.70;99.90
37240;DHT22;23130;48.760;9.178;2023-03-24T00:26:20;12.70;99.90
37240;DHT22;23130;48.760;9.178;2023-03-24T00:28:47;12.70;99.90
37240;DHT22;23130;48.760;9.178;2023-03-24T00:31:14;12.70;99.90
37240;DHT22;23130;48.760;9.178;2023-03-24T00:33:42;12.60;99.90
37240;DHT22;23130;48.760;9.178;2023-03-24T00:36:10;12.70;99.90
37240;DHT22;23130;48.760;9.178;2023-03-24T00:38:40;12.70;99.90
37240;DHT22;23130;48.760;9.178;2023-03-24T00:41:07;12.70;99.90
37240;DHT22;23130;48.760;9.178;2023-03-24T00:43:33;12.70;99.90
37240;DHT22;23130;48.760;9.178;2023-03-24T00:46:00;12.70;99.90
37240;DHT22;23130;48.760;9.178;2023-03-24T00:48:27;12.80;99.90
37240;DHT22;23130;48.760;9.178;2023-03-24T00:50:53;12.90;99.90
37240;DHT22;23130;48.760;9.178;2023-03-24T00:53:19;12.90;99.90
37240;DHT22;23130;48.760;9.178;2023-03-24T00:55:47;13.00;99.90
37240;DHT22;23130;48.760;9.178;2023-03-24T00:58:15;12.90;99.90
37240;DHT22;23130;48.760;9.178;2023-03-24T01:00:45;12.80;99.90
37240;DHT22;23130;48.760;9.178;2023-03-24T01:03:11;12.80;99.90
37240;DHT22;23130;48.760;9.178;2023-03-24T01:05:37;12.70;99.90
37240;DHT22;23130;48.760;9.178;2023-03-24T01:08:04;12.70;99.90
37240;DHT22;23130;48.760;9.178;2023-03-24T01:10:38;12.70;99.90
37240;DHT22;23130;48.760;9.178;2023-03-24T01:13:18;12.70;99.90
37240;DHT22;23130;48.760;9.178;2023-03-24T01:15:44;12.70;99.90
37240;DHT22;23130;48.760;9.178;2023-03-24T01:18:10;12.60;99.90
37240;DHT22;23130;48.760;9.178;2023-03-24T01:20:37;12.60;99.90
37240;DHT22;23130;48.760;9.178;2023-03-24T01:23:06;12.50;99.90
37240;DHT22;23130;48.760;9.178;2023-03-24T01:25:33;12.50;99.90
37240;DHT22;23130;48.760;9.178;2023-03-24T01:28:00;12.50;99.90
37240;DHT22;23130;48.760;9.178;2023-03-24T01:30:28;12.50;99.90
37240;DHT22;23130;48.760;9.178;2023-03-24T01:32:54;12.60;99.90
37240;DHT22;23130;48.760;9.178;2023-03-24T01:35:21;12.60;99.90
37240;DHT22;23130;48.760;9.178;2023-03-24T01:37:48;12.50;99.90
37240;DHT22;23130;48.760;9.178;2023-03-24T01:40:23;12.50;99.90
37240;DHT22;23130;48.760;9.178;2023-03-24T01:42:50;12.50;99.90
37240;DHT22;23130;48.760;9.178;2023-03-24T01:48:13;12.50;99.90
37240;DHT22;23130;48.760;9.178;2023-03-24T01:50:43;12.50;99.90
37240;DHT22;23130;48.760;9.178;2023-03-24T01:53:09;12.60;99.90
37240;DHT22;23130;48.760;9.178;2023-03-24T01:55:36;12.60;99.90
37240;DHT22;23130;48.760;9.178;2023-03-24T01:58:02;12.50;99.90
37240;DHT22;23130;48.760;9.178;2023-03-24T02:00:28;12.50;99.90
37240;DHT22;23130;48.760;9.178;2023-03-24T02:02:57;12.50;99.90
37240;DHT22;23130;48.760;9.178;2023-03-24T02:05:32;12.50;99.90
37240;DHT22;23130;48.760;9.178;2023-03-24T02:08:09;12.60;99.90
37240;DHT22;23130;48.760;9.178;2023-03-24T02:10:36;12.70;99.90
37240;DHT22;23130;48.760;9.178;2023-03-24T02:13:03;12.80;99.90
37240;DHT22;23130;48.760;9.178;2023-03-24T02:15:31;12.90;99.90
37240;DHT22;23130;48.760;9.178;2023-03-24T02:40:45;13.10;99.90
37240;DHT22;23130;48.760;9.178;2023-03-24T02:46:18;13.20;99.90
37240;DHT22;23130;48.760;9.178;2023-03-24T02:51:39;13.30;99.90
37240;DHT22;23130;48.760;9.178;2023-03-24T02:54:12;13.30;99.90
37240;DHT22;23130;48.760;9.178;2023-03-24T02:57:08;13.40;99.90
37240;DHT22;23130;48.760;9.178;2023-03-24T02:59:40;13.50;99.90
37240;DHT22;23130;48.760;9.178;2023-03-24T03:02:13;13.50;99.90
37240;DHT22;23130;48.760;9.178;2023-03-24T03:04:46;13.50;99.90
37240;DHT22;23130;48.760;9.178;2023-03-24T03:07:17;13.60;99.90
37240;DHT22;23130;48.760;9.178;2023-03-24T03:09:56;13.70;99.90
37240;DHT22;23130;48.760;9.178;2023-03-24T03:12:26;13.80;99.90
37240;DHT22;23130;48.760;9.178;2023-03-24T03:15:04;13.80;99.90
37240;DHT22;23130;48.760;9.178;2023-03-24T03:17:36;13.80;99.90
37240;DHT22;23130;48.760;9.178;2023-03-24T03:20:14;13.90;99.90
37240;DHT22;23130;48.760;9.178;2023-03-24T03:22:55;13.80;99.90
37240;DHT22;23130;48.760;9.178;2023-03-24T03:25:26;13.80;99.90
37240;DHT22;23130;48.760;9.178;2023-03-24T03:27:55;13.70;99.90
37240;DHT22;23130;48.760;9.178;2023-03-24T03:30:28;13.70;99.90
37240;DHT22;23130;48.760;9.178;2023-03-24T03:32:59;13.60;99.90
37240;DHT22;23130;48.760;9.178;2023-03-24T03:36:01;13.60;99.90
37240;DHT22;23130;48.760;9.178;2023-03-24T03:41:04;13.50;99.90
37240;DHT22;23130;48.760;9.178;2023-03-24T03:43:32;13.50;99.90
37240;DHT22;23130;48.760;9.178;2023-03-24T03:45:59;13.40;99.90
37240;DHT22;23130;48.760;9.178;2023-03-24T03:48:26;13.30;99.90
37240;DHT22;23130;48.760;9.178;2023-03-24T03:50:53;13.20;99.90
37240;DHT22;23130;48.760;9.178;2023-03-24T03:53:22;13.20;99.90
37240;DHT22;23130;48.760;9.178;2023-03-24T03:55:49;13.20;99.90
37240;DHT22;23130;48.760;9.178;2023-03-24T03:58:16;13.20;99.90
37240;DHT22;23130;48.760;9.178;2023-03-24T04:00:42;13.30;99.90
37240;DHT22;23130;48.760;9.178;2023-03-24T04:05:43;13.20;99.90
37240;DHT22;23130;48.760;9.178;2023-03-24T04:16:19;13.20;99.90
37240;DHT22;23130;48.760;9.178;2023-03-24T04:22:05;13.10;99.90
37240;DHT22;23130;48.760;9.178;2023-03-24T04:24:54;13.20;99.90
37240;DHT22;23130;48.760;9.178;2023-03-24T04:27:26;13.20;99.90
37240;DHT22;23130;48.760;9.178;2023-03-24T04:30:20;13.30;99.90
37240;DHT22;23130;48.760;9.178;2023-03-24T04:32:59;13.40;99.90
37240;DHT22;23130;48.760;9.178;2023-03-24T04:35:33;13.50;99.90
37240;DHT22;23130;48.760;9.178;2023-03-24T04:38:03;13.50;99.90
37240;DHT22;23130;48.760;9.178;2023-03-24T04:40:32;13.50;99.90
37240;DHT22;23130;48.760;9.178;2023-03-24T04:43:00;13.50;99.90
37240;DHT22;23130;48.760;9.178;2023-03-24T04:45:29;13.50;99.90
37240;DHT22;23130;48.760;9.178;2023-03-24T04:48:00;13.60;99.90
37240;DHT22;23130;48.760;9.178;2023-03-24T04:50:36;13.60;99.90
37240;DHT22;23130;48.760;9.178;2023-03-24T04:53:03;13.60;99.90
37240;DHT22;23130;48.760;9.178;2023-03-24T04:58:16;13.80;99.90
37240;DHT22;23130;48.760;9.178;2023-03-24T05:00:42;13.90;99.90
37240;DHT22;23130;48.760;9.178;2023-03-24T05:03:09;13.80;99.90
37240;DHT22;23130;48.760;9.178;2023-03-24T05:05:42;13.90;99.90
37240;DHT22;23130;48.760;9.178;2023-03-24T05:08:08;13.90;99.90
37240;DHT22;23130;48.760;9.178;2023-03-24T05:10:35;14.00;99.90
37240;DHT22;23130;48.760;9.178;2023-03-24T05:13:01;14.10;99.90
37240;DHT22;23130;48.760;9.178;2023-03-24T05:15:27;14.20;99.90
37240;DHT22;23130;48.760;9.178;2023-03-24T05:17:53;14.30;99.90
37240;DHT22;23130;48.760;9.178;2023-03-24T05:20:18;14.40;99.90
37240;DHT22;23130;48.760;9.178;2023-03-24T05:22:44;14.40;99.90
37240;DHT22;23130;48.760;9.178;2023-03-24T05:25:10;14.40;99.90
37240;DHT22;23130;48.760;9.178;2023-03-24T05:27:36;14.40;99.90
37240;DHT22;23130;48.760;9.178;2023-03-24T05:30:03;14.50;99.90
37240;DHT22;23130;48.760;9.178;2023-03-24T05:32:29;14.40;99.90
37240;DHT22;23130;48.760;9.178;2023-03-24T05:34:55;14.30;99.90
37240;DHT22;23130;48.760;9.178;2023-03-24T05:37:20;14.20;99.90
37240;DHT22;23130;48.760;9.178;2023-03-24T05:39:46;13.90;99.90
37240;DHT22;23130;48.760;9.178;2023-03-24T05:42:12;13.80;99.90
37240;DHT22;23130;48.760;9.178;2023-03-24T05:44:37;13.60;99.90
37240;DHT22;23130;48.760;9.178;2023-03-24T05:47:03;13.40;99.90
37240;DHT22;23130;48.760;9.178;2023-03-24T05:49:28;13.30;99.90
37240;DHT22;23130;48.760;9.178;2023-03-24T05:51:54;13.20;99.90
37240;DHT22;23130;48.760;9.178;2023-03-24T05:54:20;13.10;99.90
37240;DHT22;23130;48.760;9.178;2023-03-24T05:56:47;13.00;99.90
37240;DHT22;23130;48.760;9.178;2023-03-24T05:59:12;12.90;99.90
37240;DHT22;23130;48.760;9.178;2023-03-24T06:01:38;12.80;99.90
37240;DHT22;23130;48.760;9.178;2023-03-24T06:04:06;12.70;99.90
37240;DHT22;23130;48.760;9.178;2023-03-24T06:06:32;12.60;99.90
37240;DHT22;23130;48.760;9.178;2023-03-24T06:08:57;12.50;99.90
37240;DHT22;23130;48.760;9.178;2023-03-24T06:11:27;12.50;99.90
37240;DHT22;23130;48.760;9.178;2023-03-24T06:13:52;12.50;99.90
37240;DHT22;23130;48.760;9.178;2023-03-24T06:16:24;12.40;99.90
37240;DHT22;23130;48.760;9.178;2023-03-24T06:18:50;12.40;99.90
37240;DHT22;23130;48.760;9.178;2023-03-24T06:21:17;12.40;99.90
37240;DHT22;23130;48.760;9.178;2023-03-24T06:23:43;12.40;99.90
37240;DHT22;23130;48.760;9.178;2023-03-24T06:26:10;12.30;99.90
37240;DHT22;23130;48.760;9.178;2023-03-24T06:28:36;12.40;99.90
37240;DHT22;23130;48.760;9.178;2023-03-24T06:31:05;12.30;99.90
37240;DHT22;23130;48.760;9.178;2023-03-24T06:33:31;12.40;99.90
37240;DHT22;23130;48.760;9.178;2023-03-24T06:35:56;12.40;99.90
37240;DHT22;23130;48.760;9.178;2023-03-24T06:38:22;12.40;99.90
37240;DHT22;23130;48.760;9.178;2023-03-24T06:40:47;12.50;99.90
37240;DHT22;23130;48.760;9.178;2023-03-24T06:43:13;12.50;99.90
37240;DHT22;23130;48.760;9.178;2023-03-24T06:45:38;12.60;99.90
37240;DHT22;23130;48.760;9.178;2023-03-24T06:48:04;12.60;99.90
37240;DHT22;23130;48.760;9.178;2023-03-24T06:50:30;12.70;99.90
37240;DHT22;23130;48.760;9.178;2023-03-24T06:53:00;12.70;99.90
37240;DHT22;23130;48.760;9.178;2023-03-24T06:55:26;12.70;99.90
37240;DHT22;23130;48.760;9.178;2023-03-24T06:57:53;12.80;99.90
37240;DHT22;23130;48.760;9.178;2023-03-24T07:00:19;12.90;99.90
37240;DHT22;23130;48.760;9.178;2023-03-24T07:02:45;12.90;99.90
37240;DHT22;23130;48.760;9.178;2023-03-24T07:05:10;13.00;99.90
37240;DHT22;23130;48.760;9.178;2023-03-24T07:07:37;13.00;99.90
37240;DHT22;23130;48.760;9.178;2023-03-24T07:10:04;13.00;99.90
37240;DHT22;23130;48.760;9.178;2023-03-24T07:12:30;13.10;99.90
37240;DHT22;23130;48.760;9.178;2023-03-24T07:14:56;13.10;99.90
37240;DHT22;23130;48.760;9.178;2023-03-24T07:17:22;13.10;99.90
37240;DHT22;23130;48.760;9.178;2023-03-24T07:19:47;13.00;99.90
37240;DHT22;23130;48.760;9.178;2023-03-24T07:22:13;12.90;99.90
37240;DHT22;23130;48.760;9.178;2023-03-24T07:24:38;12.80;99.90
37240;DHT22;23130;48.760;9.178;2023-03-24T07:27:04;12.70;99.90
37240;DHT22;23130;48.760;9.178;2023-03-24T07:29:31;12.60;99.90
37240;DHT22;23130;48.760;9.178;2023-03-24T07:31:56;12.50;99.90
37240;DHT22;23130;48.760;9.178;2023-03-24T07:34:26;12.50;99.90
37240;DHT22;23130;48.760;9.178;2023-03-24T07:36:52;12.40;99.90
37240;DHT22;23130;48.760;9.178;2023-03-24T07:39:18;12.40;99.90
37240;DHT22;23130;48.760;9.178;2023-03-24T07:41:44;12.30;99.90
37240;DHT22;23130;48.760;9.178;2023-03-24T07:44:09;12.30;99.90
37240;DHT22;23130;48.760;9.178;2023-03-24T07:46:35;12.30;99.90
37240;DHT22;23130;48.760;9.178;2023-03-24T07:49:01;12.20;99.90
37240;DHT22;23130;48.760;9.178;2023-03-24T07:51:27;12.20;99.90
37240;DHT22;23130;48.760;9.178;2023-03-24T07:53:52;12.20;99.90
37240;DHT22;23130;48.760;9.178;2023-03-24T07:56:18;12.20;99.90
37240;DHT22;23130;48.760;9.178;2023-03-24T07:58:44;12.10;99.90
37240;DHT22;23130;48.760;9.178;2023-03-24T08:01:09;12.20;99.90
37240;DHT22;23130;48.760;9.178;2023-03-24T08:03:36;12.20;99.90
37240;DHT22;23130;48.760;9.178;2023-03-24T08:06:02;12.30;99.90
37240;DHT22;23130;48.760;9.178;2023-03-24T08:08:28;12.30;99.90
37240;DHT22;23130;48.760;9.178;2023-03-24T08:10:54;12.30;99.90
37240;DHT22;23130;48.760;9.178;2023-03-24T08:13:20;12.40;99.90
37240;DHT22;23130;48.760;9.178;2023-03-24T08:15:45;12.40;99.90
37240;DHT22;23130;48.760;9.178;2023-03-24T08:18:11;12.40;99.90
37240;DHT22;23130;48.760;9.178;2023-03-24T08:20:36;12.40;99.90
37240;DHT22;23130;48.760;9.178;2023-03-24T08:23:03;12.50;99.90
37240;DHT22;23130;48.760;9.178;2023-03-24T08:25:29;12.50;99.90
37240;DHT22;23130;48.760;9.178;2023-03-24T08:27:57;12.60;99.90
37240;DHT22;23130;48.760;9.178;2023-03-24T08:30:24;12.60;99.90
37240;DHT22;23130;48.760;9.178;2023-03-24T08:32:53;12.70;99.90
37240;DHT22;23130;48.760;9.178;2023-03-24T08:35:22;12.70;99.90
37240;DHT22;23130;48.760;9.178;2023-03-24T08:37:48;12.80;99.90
37240;DHT22;23130;48.760;9.178;2023-03-24T08:40:17;12.80;99.90
37240;DHT22;23130;48.760;9.178;2023-03-24T08:42:48;12.80;99.90
37240;DHT22;23130;48.760;9.178;2023-03-24T08:45:14;12.90;99.90
37240;DHT22;23130;48.760;9.178;2023-03-24T08:47:40;13.00;99.90
37240;DHT22;23130;48.760;9.178;2023-03-24T08:50:07;13.00;99.90
37240;DHT22;23130;48.760;9.178;2023-03-24T08:52:34;13.10;99.90
37240;DHT22;23130;48.760;9.178;2023-03-24T08:54:59;13.10;99.90
37240;DHT22;23130;48.760;9.178;2023-03-24T08:57:25;13.20;99.90
37240;DHT22;23130;48.760;9.178;2023-03-24T08:59:51;13.20;99.90
37240;DHT22;23130;48.760;9.178;2023-03-24T09:02:18;13.30;99.90
37240;DHT22;23130;48.760;9.178;2023-03-24T09:04:43;13.40;99.90
37240;DHT22;23130;48.760;9.178;2023-03-24T09:07:10;13.50;99.90
37240;DHT22;23130;48.760;9.178;2023-03-24T09:09:36;13.60;99.90
37240;DHT22;23130;48.760;9.178;2023-03-24T09:12:02;13.60;99.90
37240;DHT22;23130;48.760;9.178;2023-03-24T09:14:27;13.70;99.90
37240;DHT22;23130;48.760;9.178;2023-03-24T09:16:53;13.80;99.90
37240;DHT22;23130;48.760;9.178;2023-03-24T09:19:18;13.80;99.90
37240;DHT22;23130;48.760;9.178;2023-03-24T09:21:45;14.00;99.90
37240;DHT22;23130;48.760;9.178;2023-03-24T09:24:12;14.10;99.90
37240;DHT22;23130;48.760;9.178;2023-03-24T09:26:37;14.30;99.90
37240;DHT22;23130;48.760;9.178;2023-03-24T09:29:03;14.40;99.90
37240;DHT22;23130;48.760;9.178;2023-03-24T09:31:29;14.70;99.90
37240;DHT22;23130;48.760;9.178;2023-03-24T09:33:54;14.60;99.90
37240;DHT22;23130;48.760;9.178;2023-03-24T09:36:20;14.60;99.90
37240;DHT22;23130;48.760;9.178;2023-03-24T09:38:46;14.70;99.90
37240;DHT22;23130;48.760;9.178;2023-03-24T09:41:17;14.70;99.90
37240;DHT22;23130;48.760;9.178;2023-03-24T09:48:55;15.30;99.90
37240;DHT22;23130;48.760;9.178;2023-03-24T09:51:29;15.50;99.90
37240;DHT22;23130;48.760;9.178;2023-03-24T09:56:59;15.70;99.90
37240;DHT22;23130;48.760;9.178;2023-03-24T10:01:53;15.70;99.90
37240;DHT22;23130;48.760;9.178;2023-03-24T10:04:21;15.60;99.90
37240;DHT22;23130;48.760;9.178;2023-03-24T10:07:06;15.70;99.90
37240;DHT22;23130;48.760;9.178;2023-03-24T10:09:35;16.10;99.90
37240;DHT22;23130;48.760;9.178;2023-03-24T10:12:18;16.40;99.90
37240;DHT22;23130;48.760;9.178;2023-03-24T10:26:08;17.00;99.90
37240;DHT22;23130;48.760;9.178;2023-03-24T10:28:44;17.00;99.90
37240;DHT22;23130;48.760;9.178;2023-03-24T10:31:15;17.00;99.90
37240;DHT22;23130;48.760;9.178;2023-03-24T10:33:44;17.00;99.90
37240;DHT22;23130;48.760;9.178;2023-03-24T10:36:17;16.90;99.90
37240;DHT22;23130;48.760;9.178;2023-03-24T10:38:44;16.90;99.90
37240;DHT22;23130;48.760;9.178;2023-03-24T10:41:19;17.00;99.90
37240;DHT22;23130;48.760;9.178;2023-03-24T10:43:46;17.00;99.90
37240;DHT22;23130;48.760;9.178;2023-03-24T10:46:15;17.00;99.90
37240;DHT22;23130;48.760;9.178;2023-03-24T10:48:47;17.00;99.90
37240;DHT22;23130;48.760;9.178;2023-03-24T10:51:15;17.00;99.90
37240;DHT22;23130;48.760;9.178;2023-03-24T10:53:43;17.00;99.90
37240;DHT22;23130;48.760;9.178;2023-03-24T10:56:16;17.10;99.90
37240;DHT22;23130;48.760;9.178;2023-03-24T10:58:42;17.40;99.90
37240;DHT22;23130;48.760;9.178;2023-03-24T11:01:24;17.50;99.90
37240;DHT22;23130;48.760;9.178;2023-03-24T11:04:01;17.50;99.90
37240;DHT22;23130;48.760;9.178;2023-03-24T11:06:30;17.30;99.90
37240;DHT22;23130;48.760;9.178;2023-03-24T11:09:17;17.30;99.90
37240;DHT22;23130;48.760;9.178;2023-03-24T11:11:44;17.20;99.90
37240;DHT22;23130;48.760;9.178;2023-03-24T11:14:25;17.30;99.90
37240;DHT22;23130;48.760;9.178;2023-03-24T11:16:52;17.20;99.90
37240;DHT22;23130;48.760;9.178;2023-03-24T11:19:22;17.20;99.90
37240;DHT22;23130;48.760;9.178;2023-03-24T11:21:50;17.40;99.90
37240;DHT22;23130;48.760;9.178;2023-03-24T11:24:18;17.40;99.90
37240;DHT22;23130;48.760;9.178;2023-03-24T11:26:55;17.50;99.90
37240;DHT22;23130;48.760;9.178;2023-03-24T11:29:23;17.60;99.90
37240;DHT22;23130;48.760;9.178;2023-03-24T11:32:00;17.60;99.90
37240;DHT22;23130;48.760;9.178;2023-03-24T11:34:34;17.50;99.90
37240;DHT22;23130;48.760;9.178;2023-03-24T11:37:28;17.60;99.90
37240;DHT22;23130;48.760;9.178;2023-03-24T11:40:15;17.60;99.90
37240;DHT22;23130;48.760;9.178;2023-03-24T11:42:50;17.50;99.90
37240;DHT22;23130;48.760;9.178;2023-03-24T11:47:56;17.40;99.90
37240;DHT22;23130;48.760;9.178;2023-03-24T11:50:32;17.40;99.90
37240;DHT22;23130;48.760;9.178;2023-03-24T11:53:11;17.30;99.90
37240;DHT22;23130;48.760;9.178;2023-03-24T11:55:59;17.10;99.90
37240;DHT22;23130;48.760;9.178;2023-03-24T11:58:45;17.00;99.90
37240;DHT22;23130;48.760;9.178;2023-03-24T12:03:58;17.20;99.90
37240;DHT22;23130;48.760;9.178;2023-03-24T12:12:18;17.00;99.90
37240;DHT22;23130;48.760;9.178;2023-03-24T12:23:55;17.40;99.90
37240;DHT22;23130;48.760;9.178;2023-03-24T12:26:30;17.40;99.90
37240;DHT22;23130;48.760;9.178;2023-03-24T12:29:39;17.50;99.90
37240;DHT22;23130;48.760;9.178;2023-03-24T12:45:55;17.40;99.90
37240;DHT22;23130;48.760;9.178;2023-03-24T12:48:33;17.50;99.90
37240;DHT22;23130;48.760;9.178;2023-03-24T12:56:17;17.50;99.90
37240;DHT22;23130;48.760;9.178;2023-03-24T12:58:49;17.40;99.90
37240;DHT22;23130;48.760;9.178;2023-03-24T13:06:50;17.10;99.90
37240;DHT22;23130;48.760;9.178;2023-03-24T13:12:04;17.30;99.90
37240;DHT22;23130;48.760;9.178;2023-03-24T13:14:49;17.30;99.90
37240;DHT22;23130;48.760;9.178;2023-03-24T13:17:23;17.30;99.90
37240;DHT22;23130;48.760;9.178;2023-03-24T13:19:51;17.20;99.90
37240;DHT22;23130;48.760;9.178;2023-03-24T13:22:19;17.00;99.90
37240;DHT22;23130;48.760;9.178;2023-03-24T13:24:45;16.80;99.90
37240;DHT22;23130;48.760;9.178;2023-03-24T13:37:24;15.40;99.90
37240;DHT22;23130;48.760;9.178;2023-03-24T13:39:57;15.40;99.90
37240;DHT22;23130;48.760;9.178;2023-03-24T13:42:43;15.40;99.90
37240;DHT22;23130;48.760;9.178;2023-03-24T13:50:23;15.60;99.90
37240;DHT22;23130;48.760;9.178;2023-03-24T13:52:49;15.50;99.90
37240;DHT22;23130;48.760;9.178;2023-03-24T13:55:49;15.50;99.90
37240;DHT22;23130;48.760;9.178;2023-03-24T13:58:42;15.30;99.90
37240;DHT22;23130;48.760;9.178;2023-03-24T14:03:45;15.40;99.90
37240;DHT22;23130;48.760;9.178;2023-03-24T14:06:15;15.50;99.90
37240;DHT22;23130;48.760;9.178;2023-03-24T14:16:49;15.90;99.90
37240;DHT22;23130;48.760;9.178;2023-03-24T14:19:20;15.90;99.90
37240;DHT22;23130;48.760;9.178;2023-03-24T14:21:57;15.80;99.90
37240;DHT22;23130;48.760;9.178;2023-03-24T14:24:29;15.70;99.90
37240;DHT22;23130;48.760;9.178;2023-03-24T14:26:56;15.40;99.90
37240;DHT22;23130;48.760;9.178;2023-03-24T14:29:37;14.50;99.90
37240;DHT22;23130;48.760;9.178;2023-03-24T14:32:04;13.90;99.90
37240;DHT22;23130;48.760;9.178;2023-03-24T14:34:30;13.50;99.90
37240;DHT22;23130;48.760;9.178;2023-03-24T14:37:00;13.30;99.90
37240;DHT22;23130;48.760;9.178;2023-03-24T14:39:43;13.20;99.90
37240;DHT22;23130;48.760;9.178;2023-03-24T14:44:58;13.10;99.90
37240;DHT22;23130;48.760;9.178;2023-03-24T14:49:53;13.10;99.90
37240;DHT22;23130;48.760;9.178;2023-03-24T14:52:43;13.00;99.90
37240;DHT22;23130;48.760;9.178;2023-03-24T14:55:14;12.80;99.90
37240;DHT22;23130;48.760;9.178;2023-03-24T14:58:00;12.50;99.90
37240;DHT22;23130;48.760;9.178;2023-03-24T15:00:28;12.30;99.90
37240;DHT22;23130;48.760;9.178;2023-03-24T15:03:00;12.20;99.90
37240;DHT22;23130;48.760;9.178;2023-03-24T15:08:15;12.00;99.90
37240;DHT22;23130;48.760;9.178;2023-03-24T15:10:49;11.90;99.90
37240;DHT22;23130;48.760;9.178;2023-03-24T15:16:04;11.60;99.90
37240;DHT22;23130;48.760;9.178;2023-03-24T15:18:31;11.50;99.90
37240;DHT22;23130;48.760;9.178;2023-03-24T15:20:57;11.40;99.90
37240;DHT22;23130;48.760;9.178;2023-03-24T15:23:25;11.40;99.90
37240;DHT22;23130;48.760;9.178;2023-03-24T15:25:51;11.40;99.90
37240;DHT22;23130;48.760;9.178;2023-03-24T15:28:20;11.40;99.90
37240;DHT22;23130;48.760;9.178;2023-03-24T15:30:48;11.30;99.90
37240;DHT22;23130;48.760;9.178;2023-03-24T15:33:14;11.20;99.90
37240;DHT22;23130;48.760;9.178;2023-03-24T15:35:39;11.30;99.90
37240;DHT22;23130;48.760;9.178;2023-03-24T15:38:05;11.20;99.90
37240;DHT22;23130;48.760;9.178;2023-03-24T15:40:33;11.40;99.90
37240;DHT22;23130;48.760;9.178;2023-03-24T15:43:01;11.60;99.90
37240;DHT22;23130;48.760;9.178;2023-03-24T15:47:54;11.70;99.90
37240;DHT22;23130;48.760;9.178;2023-03-24T15:50:35;11.70;99.90
37240;DHT22;23130;48.760;9.178;2023-03-24T15:53:06;11.60;99.90
37240;DHT22;23130;48.760;9.178;2023-03-24T15:55:45;11.60;99.90
37240;DHT22;23130;48.760;9.178;2023-03-24T15:58:25;11.50;99.90
37240;DHT22;23130;48.760;9.178;2023-03-24T16:00:55;11.60;99.90
37240;DHT22;23130;48.760;9.178;2023-03-24T16:03:22;11.50;99.90
37240;DHT22;23130;48.760;9.178;2023-03-24T16:05:51;11.50;99.90
37240;DHT22;23130;48.760;9.178;2023-03-24T16:08:36;11.60;99.90
37240;DHT22;23130;48.760;9.178;2023-03-24T16:11:07;11.60;99.90
37240;DHT22;23130;48.760;9.178;2023-03-24T16:13:36;11.60;99.90
37240;DHT22;23130;48.760;9.178;2023-03-24T16:18:45;11.60;99.90
37240;DHT22;23130;48.760;9.178;2023-03-24T16:23:42;11.60;99.90
37240;DHT22;23130;48.760;9.178;2023-03-24T16:26:16;11.60;99.90
37240;DHT22;23130;48.760;9.178;2023-03-24T16:28:42;11.60;99.90
37240;DHT22;23130;48.760;9.178;2023-03-24T16:31:24;11.60;99.90
37240;DHT22;23130;48.760;9.178;2023-03-24T16:33:50;11.70;99.90
37240;DHT22;23130;48.760;9.178;2023-03-24T16:36:17;11.70;99.90
37240;DHT22;23130;48.760;9.178;2023-03-24T16:38:44;11.70;99.90
37240;DHT22;23130;48.760;9.178;2023-03-24T16:41:10;11.70;99.90
37240;DHT22;23130;48.760;9.178;2023-03-24T16:43:38;11.80;99.90
37240;DHT22;23130;48.760;9.178;2023-03-24T16:46:04;11.80;99.90
37240;DHT22;23130;48.760;9.178;2023-03-24T16:48:30;11.90;99.90
37240;DHT22;23130;48.760;9.178;2023-03-24T16:50:55;11.90;99.90
37240;DHT22;23130;48.760;9.178;2023-03-24T16:53:22;11.90;99.90
37240;DHT22;23130;48.760;9.178;2023-03-24T16:55:48;11.90;99.90
37240;DHT22;23130;48.760;9.178;2023-03-24T16:58:15;12.00;99.90
37240;DHT22;23130;48.760;9.178;2023-03-24T17:00:41;11.90;99.90
37240;DHT22;23130;48.760;9.178;2023-03-24T17:03:13;11.90;99.90
37240;DHT22;23130;48.760;9.178;2023-03-24T17:05:47;11.80;99.90
37240;DHT22;23130;48.760;9.178;2023-03-24T17:08:14;11.70;99.90
37240;DHT22;23130;48.760;9.178;2023-03-24T17:10:41;11.60;99.90
37240;DHT22;23130;48.760;9.178;2023-03-24T17:13:09;11.40;99.90
37240;DHT22;23130;48.760;9.178;2023-03-24T17:15:43;11.40;99.90
37240;DHT22;23130;48.760;9.178;2023-03-24T17:18:09;11.20;99.90
37240;DHT22;23130;48.760;9.178;2023-03-24T17:20:35;11.10;99.90
37240;DHT22;23130;48.760;9.178;2023-03-24T17:23:04;11.00;99.90
37240;DHT22;23130;48.760;9.178;2023-03-24T17:25:30;10.90;99.90
37240;DHT22;23130;48.760;9.178;2023-03-24T17:27:56;10.70;99.90
37240;DHT22;23130;48.760;9.178;2023-03-24T17:30:24;10.60;99.90
37240;DHT22;23130;48.760;9.178;2023-03-24T17:32:50;10.50;99.90
37240;DHT22;23130;48.760;9.178;2023-03-24T17:35:18;10.50;99.90
37240;DHT22;23130;48.760;9.178;2023-03-24T17:37:44;10.40;99.90
37240;DHT22;23130;48.760;9.178;2023-03-24T17:40:12;10.40;99.90
37240;DHT22;23130;48.760;9.178;2023-03-24T17:42:40;10.30;99.90
37240;DHT22;23130;48.760;9.178;2023-03-24T17:45:08;10.30;99.90
37240;DHT22;23130;48.760;9.178;2023-03-24T17:47:34;10.30;99.90
37240;DHT22;23130;48.760;9.178;2023-03-24T17:50:00;10.10;99.90
37240;DHT22;23130;48.760;9.178;2023-03-24T17:52:26;10.10;99.90
37240;DHT22;23130;48.760;9.178;2023-03-24T17:54:51;10.00;99.90
37240;DHT22;23130;48.760;9.178;2023-03-24T17:57:17;9.90;99.90
37240;DHT22;23130;48.760;9.178;2023-03-24T17:59:43;9.80;99.90
37240;DHT22;23130;48.760;9.178;2023-03-24T18:02:11;9.80;99.90
37240;DHT22;23130;48.760;9.178;2023-03-24T18:04:37;9.80;99.90
37240;DHT22;23130;48.760;9.178;2023-03-24T18:07:03;9.80;99.90
37240;DHT22;23130;48.760;9.178;2023-03-24T18:09:31;9.70;99.90
37240;DHT22;23130;48.760;9.178;2023-03-24T18:11:56;9.70;99.90
37240;DHT22;23130;48.760;9.178;2023-03-24T18:14:22;9.60;99.90
37240;DHT22;23130;48.760;9.178;2023-03-24T18:16:48;9.60;99.90
37240;DHT22;23130;48.760;9.178;2023-03-24T18:19:14;9.50;99.90
37240;DHT22;23130;48.760;9.178;2023-03-24T18:21:40;9.50;99.90
37240;DHT22;23130;48.760;9.178;2023-03-24T18:24:06;9.50;99.90
37240;DHT22;23130;48.760;9.178;2023-03-24T18:26:32;9.50;99.90
37240;DHT22;23130;48.760;9.178;2023-03-24T18:28:58;9.50;99.90
37240;DHT22;23130;48.760;9.178;2023-03-24T18:31:24;9.50;99.90